Time;durP1;ratioP1;P1;durP2;ratioP2;P2;SDS_P1;SDS_P2;PMS_P1;PMS_P2;Temp;Humidity;BMP_temperature;BMP_pressure;BME280_temperature;BME280_humidity;BME280_pressure;Samples;Min_cycle;Max_cycle;Signal;HPM_P1;HPM_P2
2021/03/30 00:06:06;;;;;;;;;;;;;;;;;;;;;
2021/03/30 00:08:34;;;;;;;20.47;8.50;;;5.80;66.90;;;;;;4732621;30;20204;-84
2021/03/30 00:14:32;;;;;;;17.17;7.67;;;5.70;69.90;;;;;;4767414;30;20566;-84
2021/03/30 00:17:08;;;;;;;24.27;7.97;;;5.70;74.30;;;;;;4793881;29;20475;-84
2021/03/30 00:20:15;;;;;;;;;;;;;;;;;;;;;
2021/03/30 00:22:52;;;;;;;17.57;8.20;;;5.50;80.30;;;;;;4830704;29;20449;-83
2021/03/30 00:25:20;;;;;;;21.80;8.73;;;5.20;83.90;;;;;;4903046;29;20457;-83
2021/03/30 00:28:17;;;;;;;23.10;8.40;;;5.30;87.90;;;;;;4916930;29;20980;-83
2021/03/30 00:31:06;;;;;;;25.27;9.40;;;5.30;87.20;;;;;;4840093;29;20552;-84
2021/03/30 00:34:03;;;;;;;;;;;;;;;;;;;;;
2021/03/30 00:37:13;;;;;;;;;;;;;;;;;;;;;
2021/03/30 00:39:49;;;;;;;18.80;9.10;;;5.40;84.40;;;;;;4915385;29;20462;-84
2021/03/30 00:42:22;;;;;;;21.93;8.50;;;5.40;83.30;;;;;;4917116;29;20477;-84
2021/03/30 00:45:17;;;;;;;25.47;8.10;;;5.20;82.90;;;;;;4918557;29;20513;-84
2021/03/30 00:47:58;;;;;;;14.90;7.70;;;5.20;87.60;;;;;;4920709;29;21045;-84
2021/03/30 00:50:34;;;;;;;20.10;7.13;;;5.10;89.00;;;;;;4919420;29;20454;-83
2021/03/30 00:53:04;;;;;;;15.83;7.43;;;4.90;89.60;;;;;;4920475;29;20453;-83
2021/03/30 00:55:37;;;;;;;19.33;9.43;;;4.90;94.00;;;;;;4920709;29;20479;-84
2021/03/30 00:58:25;;;;;;;20.33;8.87;;;5.00;95.00;;;;;;4922191;29;20524;-84
2021/03/30 01:01:00;;;;;;;19.53;9.30;;;4.90;97.00;;;;;;4920371;29;20485;-83
2021/03/30 01:03:59;;;;;;;;;;;;;;;;;;;;;
2021/03/30 01:06:37;;;;;;;13.27;7.33;;;4.80;99.10;;;;;;4843343;29;20517;-84
2021/03/30 01:09:24;;;;;;;18.67;8.77;;;4.90;99.40;;;;;;4903067;29;20972;-83
2021/03/30 01:12:19;;;;;;;17.03;7.70;;;4.90;96.10;;;;;;4920394;29;20462;-84
2021/03/30 01:15:18;;;;;;;18.70;9.70;;;4.90;96.00;;;;;;4861698;29;20496;-83
2021/03/30 01:18:04;;;;;;;;;;;;;;;;;;;;;
2021/03/30 01:21:06;;;;;;;16.23;7.20;;;5.00;96.10;;;;;;4875003;29;20465;-84
2021/03/30 01:24:22;;;;;;;26.60;7.97;;;5.00;94.50;;;;;;4919862;29;20461;-84
2021/03/30 01:27:05;;;;;;;14.40;7.50;;;4.90;95.50;;;;;;4907471;29;20486;-84
2021/03/30 01:30:07;;;;;;;18.23;8.03;;;4.90;96.10;;;;;;4919885;29;20568;-84
2021/03/30 01:33:17;;;;;;;16.63;7.10;;;5.00;93.70;;;;;;4863463;29;20964;-84
2021/03/30 01:35:56;;;;;;;17.77;7.50;;;4.90;92.30;;;;;;4811541;29;20479;-84
2021/03/30 01:38:43;;;;;;;18.50;7.40;;;4.90;90.70;;;;;;4861375;29;20880;-84
2021/03/30 01:41:17;;;;;;;14.87;6.70;;;4.90;91.60;;;;;;4861556;29;20460;-84
2021/03/30 01:43:59;;;;;;;;;;;;;;;;;;;;;
2021/03/30 01:46:55;;;;;;;16.13;6.47;;;5.00;89.70;;;;;;4860987;29;20543;-84
2021/03/30 01:49:28;;;;;;;12.03;6.80;;;4.90;87.60;;;;;;4860297;29;20499;-83
2021/03/30 01:52:21;;;;;;;;;;;;;;;;;;;;;
2021/03/30 01:57:42;;;;;;;17.23;7.70;;;4.80;92.30;;;;;;4859958;29;20973;-83
2021/03/30 02:00:20;;;;;;;16.93;7.07;;;4.60;93.20;;;;;;4861062;29;20483;-84
2021/03/30 02:02:58;;;;;;;19.07;7.80;;;4.40;93.50;;;;;;4876411;29;20465;-84
2021/03/30 02:05:53;;;;;;;14.80;7.13;;;4.40;96.70;;;;;;4918124;29;20544;-83
2021/03/30 02:08:49;;;;;;;16.33;7.07;;;4.20;98.80;;;;;;4915585;29;20484;-83
2021/03/30 02:11:43;;;;;;;17.27;8.10;;;4.20;99.60;;;;;;4908455;29;20528;-84
2021/03/30 02:14:16;;;;;;;19.47;8.50;;;4.00;99.20;;;;;;4919035;29;20881;-83
2021/03/30 02:16:59;;;;;;;16.77;9.43;;;4.10;99.90;;;;;;4919054;29;20525;-84
2021/03/30 02:19:43;;;;;;;13.53;6.43;;;4.00;99.90;;;;;;4920532;29;20489;-84
2021/03/30 02:22:43;;;;;;;15.87;8.20;;;4.10;99.90;;;;;;4918976;29;20464;-83
2021/03/30 02:25:35;;;;;;;;;;;;;;;;;;;;;
2021/03/30 02:31:35;;;;;;;14.33;8.67;;;4.00;99.90;;;;;;4918942;29;20453;-83
2021/03/30 02:34:07;;;;;;;13.43;8.50;;;3.90;99.90;;;;;;4917494;29;20524;-83
2021/03/30 02:36:53;;;;;;;;;;;;;;;;;;;;;
2021/03/30 02:39:21;;;;;;;14.30;8.27;;;4.00;99.90;;;;;;4908271;29;20481;-83
2021/03/30 02:48:26;;;;;;;17.03;9.80;;;3.70;99.90;;;;;;4849389;29;20503;-83
2021/03/30 02:51:38;;;;;;;17.10;11.87;;;3.70;99.90;;;;;;4847367;29;20495;-83
2021/03/30 03:07:21;;;;;;;15.57;13.50;;;3.70;99.90;;;;;;5326908;23;20496;-82
2021/03/30 03:10:29;;;;;;;16.37;11.90;;;3.80;99.90;;;;;;4878192;29;20459;-82
2021/03/30 03:13:48;;;;;;;;;;;;;;;;;;;;;
2021/03/30 03:16:33;;;;;;;17.13;12.40;;;3.70;99.90;;;;;;4774666;29;20959;-82
2021/03/30 03:19:32;;;;;;;;;;;;;;;;;;;;;
2021/03/30 03:21:58;;;;;;;16.47;14.40;;;3.70;99.90;;;;;;4872973;29;20515;-82
2021/03/30 03:24:57;;;;;;;20.57;16.53;;;3.70;99.90;;;;;;4878211;29;20463;-82
2021/03/30 03:27:40;;;;;;;20.60;15.30;;;3.70;99.90;;;;;;4806489;29;20455;-82
2021/03/30 03:31:10;;;;;;;;;;;;;;;;;;;;;
2021/03/30 03:34:29;;;;;;;;;;;;;;;;;;;;;
2021/03/30 03:37:33;;;;;;;20.60;18.70;;;3.60;99.90;;;;;;4854198;29;20475;-82
2021/03/30 03:40:01;;;;;;;17.70;15.87;;;3.60;99.90;;;;;;4902976;29;20492;-82
2021/03/30 03:42:45;;;;;;;15.90;13.27;;;3.70;99.90;;;;;;4936453;29;20548;-82
2021/03/30 03:45:20;;;;;;;15.43;12.73;;;3.90;99.90;;;;;;4936618;29;20953;-82
2021/03/30 03:48:01;;;;;;;;;;;;;;;;;;;;;
2021/03/30 03:51:07;;;;;;;17.83;15.47;;;4.10;99.90;;;;;;4929950;29;20444;-82
2021/03/30 03:57:00;;;;;;;;;;;;;;;;;;;;;
2021/03/30 04:00:10;;;;;;;21.15;15.45;;;3.50;99.90;;;;;;4934255;29;20572;-83
2021/03/30 04:03:05;;;;;;;19.23;17.23;;;3.70;99.90;;;;;;4932343;29;20201;-82
2021/03/30 04:05:49;;;;;;;21.53;18.00;;;3.80;99.90;;;;;;4934894;29;20838;-82
2021/03/30 04:08:28;;;;;;;18.60;16.67;;;3.80;99.90;;;;;;4936066;29;20523;-82
2021/03/30 04:11:15;;;;;;;;;;;;;;;;;;;;;
2021/03/30 04:14:22;;;;;;;19.33;16.90;;;3.70;99.90;;;;;;4932374;29;20455;-82
2021/03/30 04:16:58;;;;;;;26.37;16.10;;;3.50;99.90;;;;;;4876931;29;20546;-84
2021/03/30 04:20:10;;;;;;;24.67;22.13;;;3.40;99.90;;;;;;4923637;29;20508;-84
2021/03/30 04:22:58;;;;;;;25.70;23.50;;;3.20;99.90;;;;;;4877413;29;20462;-84
2021/03/30 04:25:55;;;;;;;;;;;;;;;;;;;;;
2021/03/30 04:28:32;;;;;;;34.83;32.33;;;3.10;99.90;;;;;;4926343;29;20456;-84
2021/03/30 04:30:58;;;;;;;35.00;32.00;;;2.90;99.90;;;;;;4935734;29;20464;-84
2021/03/30 04:33:52;;;;;;;40.97;38.33;;;2.90;99.90;;;;;;4934772;29;20515;-84
2021/03/30 04:37:01;;;;;;;38.53;35.50;;;2.80;99.90;;;;;;4876944;29;20571;-84
2021/03/30 04:39:29;;;;;;;45.27;42.30;;;2.80;99.90;;;;;;4883094;29;21054;-84
2021/03/30 04:42:13;;;;;;;;;;;;;;;;;;;;;
2021/03/30 04:44:46;;;;;;;62.90;59.50;;;2.80;99.90;;;;;;4935612;29;20460;-84
2021/03/30 04:47:21;;;;;;;64.73;61.43;;;2.80;99.90;;;;;;4935785;29;20889;-83
2021/03/30 04:49:51;;;;;;;62.77;59.43;;;2.90;99.90;;;;;;4934793;29;20459;-85
2021/03/30 04:52:25;;;;;;;70.63;66.70;;;2.80;99.90;;;;;;4935581;29;20468;-84
2021/03/30 04:55:21;;;;;;;61.50;57.90;;;2.80;99.90;;;;;;4935898;29;20468;-84
2021/03/30 04:57:55;;;;;;;55.80;52.73;;;2.70;99.90;;;;;;4873644;29;20459;-84
2021/03/30 05:00:26;;;;;;;58.03;54.47;;;2.60;99.90;;;;;;4926841;29;20461;-85
2021/03/30 05:03:19;;;;;;;;;;;;;;;;;;;;;
2021/03/30 05:05:51;;;;;;;68.93;64.53;;;2.80;99.90;;;;;;4935136;29;20476;-84
2021/03/30 05:08:37;;;;;;;69.97;65.73;;;2.70;99.90;;;;;;4935690;29;20461;-84
2021/03/30 05:11:12;;;;;;;61.00;57.90;;;2.90;99.90;;;;;;4936854;29;20460;-85
2021/03/30 05:13:39;;;;;;;57.55;54.50;;;2.80;99.90;;;;;;4935688;29;20860;-84
2021/03/30 05:22:18;;;;;;;71.07;67.47;;;2.60;99.90;;;;;;4932139;29;20987;-84
2021/03/30 05:25:20;;;;;;;;;;;;;;;;;;;;;
2021/03/30 05:27:54;;;;;;;71.43;67.53;;;2.50;99.90;;;;;;4918550;29;20787;-84
2021/03/30 05:30:27;;;;;;;77.63;73.90;;;2.40;99.90;;;;;;4936645;29;20452;-84
2021/03/30 05:32:55;;;;;;;86.43;80.40;;;2.40;99.90;;;;;;4939188;29;20519;-85
2021/03/30 05:35:24;;;;;;;82.73;78.30;;;2.60;99.90;;;;;;4937969;29;20456;-83
2021/03/30 05:38:02;;;;;;;82.03;77.20;;;2.50;99.90;;;;;;4938763;29;20524;-85
2021/03/30 05:43:43;;;;;;;75.00;71.00;;;2.60;99.90;;;;;;4934892;29;20453;-85
2021/03/30 05:46:12;;;;;;;69.33;65.20;;;2.60;99.90;;;;;;4898911;29;20460;-85
2021/03/30 05:48:51;;;;;;;74.00;69.87;;;2.60;99.90;;;;;;4937457;29;20461;-84
2021/03/30 05:54:52;;;;;;;77.57;73.57;;;2.70;99.90;;;;;;4937042;29;20518;-84
2021/03/30 05:57:46;;;;;;;102.95;97.18;;;2.80;99.90;;;;;;4938442;29;20472;-85
2021/03/30 06:00:48;;;;;;;133.63;126.97;;;2.90;99.90;;;;;;4938381;29;20228;-84
2021/03/30 06:03:43;;;;;;;;;;;;;;;;;;;;;
2021/03/30 06:06:34;;;;;;;144.60;137.20;;;3.10;99.90;;;;;;4937727;29;20477;-84
2021/03/30 06:09:32;;;;;;;;;;;;;;;;;;;;;
2021/03/30 06:12:39;;;;;;;128.43;122.50;;;3.50;99.90;;;;;;4858022;29;20831;-84
2021/03/30 06:18:42;;;;;;;;;;;;;;;;;;;;;
2021/03/30 06:21:50;;;;;;;119.03;112.90;;;3.70;99.90;;;;;;4819229;29;20462;-84
2021/03/30 06:24:53;;;;;;;121.50;115.50;;;3.90;99.90;;;;;;4870713;29;20490;-84
2021/03/30 06:27:27;;;;;;;131.57;125.23;;;4.10;99.90;;;;;;4878859;29;20468;-84
2021/03/30 06:29:59;;;;;;;134.93;128.67;;;4.20;99.90;;;;;;4938134;29;20492;-84
2021/03/30 06:36:33;;;;;;;111.77;106.37;;;4.80;99.90;;;;;;4878958;29;20518;-84
2021/03/30 06:39:43;;;;;;;;;;;;;;;;;;;;;
2021/03/30 06:42:42;;;;;;;70.90;67.10;;;5.20;99.90;;;;;;4903376;29;21015;-84
2021/03/30 06:48:54;;;;;;;60.73;56.30;;;5.70;99.90;;;;;;4935801;29;20456;-84
2021/03/30 06:55:05;;;;;;;;;;;;;;;;;;;;;
2021/03/30 06:57:58;;;;;;;47.23;43.80;;;6.40;99.90;;;;;;4806694;29;20478;-81
2021/03/30 07:00:31;;;;;;;37.90;35.03;;;6.50;99.90;;;;;;4825793;29;20525;-82
2021/03/30 07:03:46;;;;;;;30.50;27.50;;;6.80;99.90;;;;;;4823317;29;20466;-82
2021/03/30 07:06:18;;;;;;;24.00;20.10;;;6.90;99.90;;;;;;4818180;29;20490;-82
2021/03/30 07:08:49;;;;;;;29.73;17.40;;;7.10;99.90;;;;;;4852925;29;20466;-82
2021/03/30 07:11:32;;;;;;;29.23;18.07;;;7.10;99.90;;;;;;4897185;29;20546;-82
2021/03/30 07:14:17;;;;;;;22.20;15.23;;;7.30;99.90;;;;;;4896804;29;20547;-82
2021/03/30 07:16:56;;;;;;;21.93;15.30;;;7.50;99.90;;;;;;4897067;29;20451;-82
2021/03/30 07:19:45;;;;;;;;;;;;;;;;;;;;;
2021/03/30 07:22:44;;;;;;;;;;;;;;;;;;;;;
2021/03/30 07:25:49;;;;;;;;;;;;;;;;;;;;;
2021/03/30 07:28:45;;;;;;;;;;;;;;;;;;;;;
2021/03/30 07:31:32;;;;;;;18.47;9.30;;;8.40;89.60;;;;;;4913416;29;20456;-82
2021/03/30 07:37:18;;;;;;;16.17;8.23;;;8.70;73.80;;;;;;4942908;28;20452;-82
2021/03/30 07:39:54;;;;;;;21.87;11.37;;;8.80;66.70;;;;;;4896356;29;20478;-82
2021/03/30 07:46:18;;;;;;;17.57;8.87;;;9.10;67.50;;;;;;4784380;30;20451;-82
2021/03/30 08:01:34;;;;;;;;;;;;;;;;;;;;;
2021/03/30 08:04:54;;;;;;;17.20;7.77;;;10.30;42.30;;;;;;4801309;29;20515;-82
2021/03/30 08:07:59;;;;;;;22.97;8.10;;;10.50;37.80;;;;;;4766590;30;20577;-82
2021/03/30 08:11:10;;;;;;;23.23;7.90;;;10.70;35.30;;;;;;4841675;29;20483;-82
2021/03/30 08:17:26;;;;;;;;;;;;;;;;;;;;;
2021/03/30 08:24:01;;;;;;;28.93;9.60;;;12.30;21.50;;;;;;4856201;29;20464;-83
2021/03/30 08:27:05;;;;;;;;;;;;;;;;;;;;;
2021/03/30 08:33:36;;;;;;;25.20;7.87;;;13.50;15.00;;;;;;4781950;30;20573;-83
2021/03/30 08:45:58;;;;;;;29.73;8.03;;;15.20;5.70;;;;;;4648236;30;20463;-83
2021/03/30 08:48:31;;;;;;;30.20;8.00;;;15.50;2.30;;;;;;4828491;29;20464;-81
2021/03/30 10:25:30;;;;;;;44.63;8.03;;;24.20;1.00;;;;;;4922510;23;20602;-83
2021/03/30 10:27:59;;;;;;;44.60;8.73;;;24.60;1.00;;;;;;4937832;29;20914;-82
2021/03/30 10:30:31;;;;;;;50.57;8.37;;;24.90;1.00;;;;;;4937345;29;21184;-81
2021/03/30 10:33:02;;;;;;;44.63;8.57;;;24.90;1.00;;;;;;4937678;29;20464;-81
2021/03/30 10:35:30;;;;;;;48.47;10.67;;;25.20;1.00;;;;;;4936516;29;20503;-81
2021/03/30 10:37:57;;;;;;;58.70;10.67;;;25.60;1.00;;;;;;4937488;29;20449;-81
2021/03/30 10:40:32;;;;;;;54.80;11.87;;;25.70;1.00;;;;;;4937619;29;21070;-81
2021/03/30 10:43:16;;;;;;;58.57;16.97;;;25.70;1.00;;;;;;4937621;29;20460;-82
2021/03/30 10:45:42;;;;;;;55.23;12.70;;;25.70;1.00;;;;;;4937710;29;20952;-81
2021/03/30 10:48:09;;;;;;;58.57;12.70;;;25.60;1.00;;;;;;4925656;29;20456;-82
2021/03/30 10:50:37;;;;;;;56.37;14.30;;;25.80;1.00;;;;;;4934851;29;20551;-84
2021/03/30 10:53:05;;;;;;;56.80;16.10;;;26.00;1.00;;;;;;4935936;29;20563;-83
2021/03/30 10:55:33;;;;;;;66.60;40.73;;;26.00;1.00;;;;;;4936378;29;20457;-82
2021/03/30 10:57:59;;;;;;;60.20;14.93;;;25.50;1.00;;;;;;4936037;29;21043;-82
2021/03/30 11:00:27;;;;;;;61.97;17.90;;;25.30;1.00;;;;;;4935595;29;20915;-81
2021/03/30 11:02:54;;;;;;;77.40;54.50;;;26.00;1.00;;;;;;4936072;29;20883;-82
2021/03/30 11:05:20;;;;;;;58.67;15.30;;;25.40;1.00;;;;;;4935013;29;20464;-81
2021/03/30 11:07:47;;;;;;;59.23;14.03;;;26.40;1.00;;;;;;4936870;29;20460;-78
2021/03/30 11:10:14;;;;;;;57.80;13.67;;;26.50;1.00;;;;;;4936847;29;20463;-79
2021/03/30 11:12:41;;;;;;;67.50;17.13;;;26.20;1.00;;;;;;4936962;29;20516;-78
2021/03/30 11:15:09;;;;;;;62.83;15.53;;;26.40;1.00;;;;;;4936760;29;20467;-79
2021/03/30 11:17:36;;;;;;;64.30;14.53;;;25.80;1.00;;;;;;4936864;29;20496;-80
2021/03/30 11:20:03;;;;;;;61.70;20.87;;;26.30;1.00;;;;;;4935632;29;20488;-79
2021/03/30 11:22:29;;;;;;;61.80;23.83;;;26.00;1.00;;;;;;4936410;29;20572;-79
2021/03/30 11:24:59;;;;;;;56.30;14.10;;;25.40;1.00;;;;;;4936382;29;20583;-79
2021/03/30 11:27:25;;;;;;;62.13;18.13;;;26.60;1.00;;;;;;4936553;29;20601;-79
2021/03/30 11:30:00;;;;;;;59.20;14.80;;;26.70;1.00;;;;;;4936310;29;20459;-80
2021/03/30 11:32:34;;;;;;;62.57;27.33;;;26.90;1.00;;;;;;4936640;29;20838;-78
2021/03/30 11:35:03;;;;;;;57.20;14.33;;;26.60;1.00;;;;;;4934779;29;20480;-78
2021/03/30 11:37:43;;;;;;;58.00;14.80;;;25.90;1.00;;;;;;4936281;29;20460;-78
2021/03/30 11:40:12;;;;;;;54.00;11.83;;;26.20;1.00;;;;;;4936557;29;20493;-79
2021/03/30 11:42:38;;;;;;;61.93;13.53;;;26.80;1.00;;;;;;4936472;29;20500;-78
2021/03/30 11:45:07;;;;;;;55.37;13.10;;;27.70;1.00;;;;;;4936408;29;20465;-79
2021/03/30 11:47:33;;;;;;;59.83;14.67;;;27.90;1.00;;;;;;4936284;29;20464;-78
2021/03/30 11:50:00;;;;;;;63.47;13.47;;;27.10;1.00;;;;;;4935575;29;20490;-77
2021/03/30 11:52:26;;;;;;;60.03;15.70;;;27.40;1.00;;;;;;4936255;29;20456;-78
2021/03/30 11:54:54;;;;;;;57.87;15.03;;;27.30;1.00;;;;;;4936002;29;20511;-83
2021/03/30 11:57:21;;;;;;;57.13;13.87;;;27.70;1.00;;;;;;4936058;29;20460;-80
2021/03/30 11:59:47;;;;;;;57.20;11.23;;;28.10;1.00;;;;;;4936122;29;20453;-79
2021/03/30 12:02:14;;;;;;;61.23;13.43;;;28.50;1.00;;;;;;4936103;29;20551;-79
2021/03/30 12:04:40;;;;;;;61.57;14.13;;;28.90;1.00;;;;;;4934906;29;20480;-80
2021/03/30 12:07:07;;;;;;;59.73;13.33;;;29.20;1.00;;;;;;4936188;29;20511;-80
2021/03/30 12:09:33;;;;;;;59.80;13.07;;;29.50;1.00;;;;;;4936023;29;20511;-80
2021/03/30 12:12:02;;;;;;;61.50;16.13;;;29.60;1.00;;;;;;4935780;29;20472;-80
2021/03/30 12:14:29;;;;;;;58.27;15.27;;;29.20;1.00;;;;;;4935793;29;20456;-80
2021/03/30 12:16:55;;;;;;;60.37;13.97;;;29.30;1.00;;;;;;4935983;29;20543;-80
2021/03/30 12:19:22;;;;;;;60.97;10.60;;;29.60;1.00;;;;;;4934842;29;20543;-81
2021/03/30 12:21:52;;;;;;;60.67;10.63;;;29.80;1.00;;;;;;4936250;29;20468;-80
2021/03/30 12:24:37;;;;;;;56.50;10.30;;;29.50;1.00;;;;;;4935626;29;20477;-87
2021/03/30 12:27:08;;;;;;;59.60;12.13;;;29.60;1.00;;;;;;4935923;29;20821;-84
2021/03/30 12:32:23;;;;;;;61.90;19.20;;;29.90;1.00;;;;;;4936614;29;20818;-83
2021/03/30 12:34:50;;;;;;;55.83;10.13;;;29.80;1.00;;;;;;4934373;29;20993;-83
2021/03/30 12:37:17;;;;;;;57.70;10.67;;;29.60;1.00;;;;;;4935710;29;20467;-83
2021/03/30 12:39:43;;;;;;;58.60;10.97;;;30.60;1.00;;;;;;4934921;29;20515;-81
2021/03/30 12:42:10;;;;;;;66.07;27.43;;;30.50;1.00;;;;;;4935419;29;20528;-83
2021/03/30 12:44:49;;;;;;;58.73;10.80;;;30.30;1.00;;;;;;4936057;29;20460;-81
2021/03/30 12:47:16;;;;;;;54.23;8.77;;;30.40;1.00;;;;;;4936875;29;20457;-86
2021/03/30 13:02:11;;;;;;;55.60;12.90;;;30.70;1.00;;;;;;4751671;29;20549;-81
2021/03/30 13:04:43;;;;;;;61.27;9.87;;;30.90;1.00;;;;;;4926035;29;20965;-81
2021/03/30 13:07:09;;;;;;;59.20;13.03;;;30.10;1.00;;;;;;4935711;29;20479;-80
2021/03/30 13:09:36;;;;;;;54.57;8.37;;;30.10;1.00;;;;;;4935385;29;20515;-80
2021/03/30 13:12:02;;;;;;;57.10;8.30;;;30.60;1.00;;;;;;4935447;29;20465;-80
2021/03/30 13:14:28;;;;;;;54.37;9.40;;;31.10;1.00;;;;;;4935377;29;20457;-79
2021/03/30 13:16:55;;;;;;;55.63;7.30;;;31.20;1.00;;;;;;4935322;29;20496;-79
2021/03/30 13:19:22;;;;;;;57.30;7.37;;;30.70;1.00;;;;;;4933909;29;20468;-84
2021/03/30 13:21:48;;;;;;;54.97;7.87;;;30.20;1.00;;;;;;4935462;29;20540;-80
2021/03/30 13:24:15;;;;;;;63.53;23.03;;;30.50;1.00;;;;;;4935294;29;20942;-81
2021/03/30 13:26:41;;;;;;;56.20;9.87;;;30.10;1.00;;;;;;4935438;29;20496;-80
2021/03/30 13:29:08;;;;;;;53.07;7.53;;;29.60;1.00;;;;;;4935333;29;20482;-80
2021/03/30 13:31:34;;;;;;;53.13;6.90;;;30.00;1.00;;;;;;4935257;29;20544;-82
2021/03/30 13:34:00;;;;;;;52.03;6.50;;;30.30;1.00;;;;;;4934037;29;20532;-81
2021/03/30 13:36:28;;;;;;;56.30;9.10;;;30.80;1.00;;;;;;4935658;29;20477;-82
2021/03/30 13:38:55;;;;;;;56.10;10.97;;;30.80;1.00;;;;;;4935194;29;20552;-80
2021/03/30 13:41:22;;;;;;;51.67;6.67;;;29.90;1.00;;;;;;4935115;29;20481;-82
2021/03/30 13:43:49;;;;;;;54.40;6.67;;;30.20;1.00;;;;;;4935271;29;20463;-83
2021/03/30 13:46:15;;;;;;;51.13;6.93;;;31.10;1.00;;;;;;4934970;29;20965;-82
2021/03/30 13:48:41;;;;;;;53.87;7.77;;;31.30;1.00;;;;;;4933819;29;20471;-82
2021/03/30 13:51:08;;;;;;;54.03;7.93;;;31.70;1.00;;;;;;4935685;29;21039;-80
2021/03/30 13:53:35;;;;;;;53.07;6.80;;;30.90;1.00;;;;;;4938235;29;20456;-82
2021/03/30 13:56:01;;;;;;;51.20;5.50;;;30.60;1.00;;;;;;4938318;29;20563;-81
2021/03/30 13:58:28;;;;;;;52.30;6.17;;;30.90;1.00;;;;;;4938274;29;20465;-82
2021/03/30 14:00:56;;;;;;;52.70;5.87;;;31.10;1.00;;;;;;4938106;29;20539;-82
2021/03/30 14:03:22;;;;;;;53.97;7.70;;;31.00;1.00;;;;;;4938135;29;20526;-81
2021/03/30 14:05:49;;;;;;;54.00;4.90;;;31.00;1.00;;;;;;4936707;29;20442;-82
2021/03/30 14:08:15;;;;;;;52.63;5.90;;;31.60;1.00;;;;;;4938225;29;20871;-82
2021/03/30 14:10:43;;;;;;;51.50;4.60;;;31.90;1.00;;;;;;4938106;29;20550;-82
2021/03/30 14:13:13;;;;;;;53.20;5.30;;;32.10;1.00;;;;;;4938115;29;20522;-82
2021/03/30 14:15:44;;;;;;;54.87;6.07;;;32.50;1.00;;;;;;4937950;29;20528;-82
2021/03/30 14:18:24;;;;;;;51.57;5.87;;;33.10;1.00;;;;;;4937926;29;20561;-82
2021/03/30 14:20:53;;;;;;;59.03;8.70;;;31.80;1.00;;;;;;4936684;29;20835;-83
2021/03/30 14:23:40;;;;;;;52.33;8.00;;;31.40;1.00;;;;;;4937596;29;20885;-83
2021/03/30 14:26:14;;;;;;;54.17;4.50;;;31.40;1.00;;;;;;4927819;29;21136;-78
2021/03/30 14:28:40;;;;;;;61.83;7.50;;;31.60;1.00;;;;;;4937845;29;20853;-79
2021/03/30 14:31:07;;;;;;;51.90;5.47;;;31.90;1.00;;;;;;4937802;29;20543;-79
2021/03/30 14:33:33;;;;;;;53.83;8.90;;;31.00;1.00;;;;;;4937553;29;20460;-78
2021/03/30 14:35:59;;;;;;;55.63;6.90;;;30.50;1.00;;;;;;4936847;29;20427;-78
2021/03/30 14:38:29;;;;;;;51.67;9.40;;;30.00;1.00;;;;;;4937681;29;20442;-79
2021/03/30 14:40:55;;;;;;;55.00;8.57;;;29.40;1.00;;;;;;4937710;29;20895;-81
2021/03/30 14:43:27;;;;;;;50.80;5.23;;;28.80;1.00;;;;;;4937754;29;20463;-81
2021/03/30 14:52:00;;;;;;;60.43;22.57;;;29.60;1.00;;;;;;4937537;29;20431;-83
2021/03/30 14:54:27;;;;;;;50.40;6.30;;;30.10;1.00;;;;;;4937260;29;20480;-82
2021/03/30 14:56:55;;;;;;;49.93;6.90;;;29.10;1.00;;;;;;4937331;29;20435;-81
2021/03/30 14:59:32;;;;;;;48.50;4.57;;;29.40;1.00;;;;;;4937008;29;20419;-81
2021/03/30 15:02:15;;;;;;;51.07;9.97;;;29.30;1.00;;;;;;4937206;29;20552;-81
2021/03/30 15:08:06;;;;;;;50.87;5.20;;;28.90;1.00;;;;;;4916971;29;20866;-80
2021/03/30 15:10:39;;;;;;;52.63;5.57;;;29.10;1.00;;;;;;4933536;29;20484;-80
2021/03/30 15:13:44;;;;;;;;;;;;;;;;;;;;;
2021/03/30 15:16:12;;;;;;;47.70;4.40;;;29.70;1.00;;;;;;4910840;29;20437;-80
2021/03/30 15:18:41;;;;;;;52.90;4.33;;;30.10;1.00;;;;;;4936242;29;20964;-79
2021/03/30 15:25:33;;;;;;;;;;;;;;;;;;;;;
2021/03/30 16:20:23;;;;;;;52.13;4.40;;;29.20;1.00;;;;;;4837124;29;20510;-84
2021/03/30 17:04:24;;;;;;;46.57;3.80;;;27.20;1.00;;;;;;4730075;30;20601;-81
2021/03/30 17:06:55;;;;;;;47.43;3.27;;;26.90;1.00;;;;;;4790133;29;20462;-82
2021/03/30 17:13:21;;;;;;;45.27;3.90;;;26.40;1.00;;;;;;4761797;30;20465;-84
2021/03/30 17:40:19;;;;;;;47.50;4.90;;;22.30;1.00;;;;;;5523235;23;20489;-84
2021/03/30 19:06:54;;;;;;;;;;;;;;;;;;;;;
2021/03/30 19:50:11;;;;;;;25.30;6.60;;;10.10;93.70;;;;;;4681248;30;20487;-85
2021/03/30 20:13:41;;;;;;;22.03;5.67;;;9.20;99.90;;;;;;4707474;30;20467;-86
2021/03/30 20:20:15;;;;;;;24.53;7.73;;;9.20;99.90;;;;;;4734697;30;20461;-85
2021/03/30 21:33:15;;;;;;;;;;;;;;;;;;;;;
2021/03/30 21:36:49;;;;;;;;;;;;;;;;;;;;;
2021/03/30 22:40:04;;;;;;;;;;;;;;;;;;;;;
2021/03/30 22:47:05;;;;;;;24.00;9.40;;;8.00;60.20;;;;;;4758721;30;20464;-85
2021/03/30 23:00:12;;;;;;;;;;;;;;;;;;;;;
2021/03/30 23:06:52;;;;;;;20.13;8.07;;;7.30;77.00;;;;;;4681113;30;20985;-85
2021/03/30 23:25:19;;;;;;;;;;;;;;;;;;;;;
2021/03/30 23:28:19;;;;;;;;;;;;;;;;;;;;;
2021/03/30 23:41:55;;;;;;;;;;;;;;;;;;;;;
